sensor_id;sensor_type;location;lat;lon;timestamp;P1;durP1;ratioP1;P2;durP2;ratioP2
69323;SDS011;56470;47.350;8.718;2024-02-16T00:00:22;9.85;;;4.70;;
69323;SDS011;56470;47.350;8.718;2024-02-16T00:02:48;10.45;;;5.28;;
69323;SDS011;56470;47.350;8.718;2024-02-16T00:05:14;10.57;;;5.43;;
69323;SDS011;56470;47.350;8.718;2024-02-16T00:07:39;9.30;;;5.63;;
69323;SDS011;56470;47.350;8.718;2024-02-16T00:10:05;9.57;;;5.65;;
69323;SDS011;56470;47.350;8.718;2024-02-16T00:12:32;10.45;;;5.20;;
69323;SDS011;56470;47.350;8.718;2024-02-16T00:14:58;10.03;;;5.20;;
69323;SDS011;56470;47.350;8.718;2024-02-16T00:17:24;10.55;;;5.32;;
69323;SDS011;56470;47.350;8.718;2024-02-16T00:19:52;8.80;;;4.90;;
69323;SDS011;56470;47.350;8.718;2024-02-16T00:22:18;10.00;;;5.35;;
69323;SDS011;56470;47.350;8.718;2024-02-16T00:24:43;10.37;;;5.67;;
69323;SDS011;56470;47.350;8.718;2024-02-16T00:27:08;12.03;;;5.47;;
69323;SDS011;56470;47.350;8.718;2024-02-16T00:29:34;8.83;;;5.20;;
69323;SDS011;56470;47.350;8.718;2024-02-16T00:31:59;9.47;;;5.63;;
69323;SDS011;56470;47.350;8.718;2024-02-16T00:34:25;9.93;;;4.73;;
69323;SDS011;56470;47.350;8.718;2024-02-16T00:36:50;9.40;;;5.50;;
69323;SDS011;56470;47.350;8.718;2024-02-16T00:39:16;8.63;;;4.63;;
69323;SDS011;56470;47.350;8.718;2024-02-16T00:41:41;9.48;;;4.65;;
69323;SDS011;56470;47.350;8.718;2024-02-16T00:44:06;10.27;;;5.17;;
69323;SDS011;56470;47.350;8.718;2024-02-16T00:46:31;9.43;;;4.83;;
69323;SDS011;56470;47.350;8.718;2024-02-16T00:48:57;8.67;;;4.87;;
69323;SDS011;56470;47.350;8.718;2024-02-16T00:51:22;8.50;;;4.70;;
69323;SDS011;56470;47.350;8.718;2024-02-16T00:53:50;8.95;;;5.55;;
69323;SDS011;56470;47.350;8.718;2024-02-16T00:56:16;8.80;;;5.23;;
69323;SDS011;56470;47.350;8.718;2024-02-16T00:58:41;8.52;;;5.25;;
69323;SDS011;56470;47.350;8.718;2024-02-16T01:01:07;9.93;;;5.37;;
69323;SDS011;56470;47.350;8.718;2024-02-16T01:03:36;8.68;;;5.05;;
69323;SDS011;56470;47.350;8.718;2024-02-16T01:06:02;10.35;;;4.90;;
69323;SDS011;56470;47.350;8.718;2024-02-16T01:08:28;9.80;;;4.90;;
69323;SDS011;56470;47.350;8.718;2024-02-16T01:10:53;7.77;;;4.63;;
69323;SDS011;56470;47.350;8.718;2024-02-16T01:13:19;9.27;;;4.77;;
69323;SDS011;56470;47.350;8.718;2024-02-16T01:15:44;8.80;;;4.90;;
69323;SDS011;56470;47.350;8.718;2024-02-16T01:18:09;9.60;;;5.33;;
69323;SDS011;56470;47.350;8.718;2024-02-16T01:20:35;7.97;;;4.63;;
69323;SDS011;56470;47.350;8.718;2024-02-16T01:23:01;8.98;;;5.05;;
69323;SDS011;56470;47.350;8.718;2024-02-16T01:25:26;10.17;;;4.93;;
69323;SDS011;56470;47.350;8.718;2024-02-16T01:27:51;9.10;;;5.20;;
69323;SDS011;56470;47.350;8.718;2024-02-16T01:30:20;7.57;;;5.05;;
69323;SDS011;56470;47.350;8.718;2024-02-16T01:32:46;10.68;;;4.85;;
69323;SDS011;56470;47.350;8.718;2024-02-16T01:35:12;8.43;;;3.70;;
69323;SDS011;56470;47.350;8.718;2024-02-16T01:37:39;8.93;;;4.77;;
69323;SDS011;56470;47.350;8.718;2024-02-16T01:40:05;9.38;;;5.13;;
69323;SDS011;56470;47.350;8.718;2024-02-16T01:42:38;9.75;;;4.82;;
69323;SDS011;56470;47.350;8.718;2024-02-16T01:45:04;8.70;;;4.50;;
69323;SDS011;56470;47.350;8.718;2024-02-16T01:47:30;9.77;;;4.78;;
69323;SDS011;56470;47.350;8.718;2024-02-16T01:49:55;10.50;;;5.20;;
69323;SDS011;56470;47.350;8.718;2024-02-16T01:52:20;11.77;;;5.27;;
69323;SDS011;56470;47.350;8.718;2024-02-16T01:54:46;8.97;;;5.33;;
69323;SDS011;56470;47.350;8.718;2024-02-16T01:57:11;8.73;;;4.73;;
69323;SDS011;56470;47.350;8.718;2024-02-16T01:59:37;8.38;;;4.80;;
69323;SDS011;56470;47.350;8.718;2024-02-16T02:02:05;9.00;;;5.03;;
69323;SDS011;56470;47.350;8.718;2024-02-16T02:04:30;11.27;;;5.40;;
69323;SDS011;56470;47.350;8.718;2024-02-16T02:06:55;9.03;;;5.10;;
69323;SDS011;56470;47.350;8.718;2024-02-16T02:09:21;11.00;;;4.97;;
69323;SDS011;56470;47.350;8.718;2024-02-16T02:11:46;8.70;;;4.83;;
69323;SDS011;56470;47.350;8.718;2024-02-16T02:14:11;9.00;;;4.70;;
69323;SDS011;56470;47.350;8.718;2024-02-16T02:16:37;10.67;;;5.57;;
69323;SDS011;56470;47.350;8.718;2024-02-16T02:19:02;9.43;;;5.07;;
69323;SDS011;56470;47.350;8.718;2024-02-16T02:21:28;10.60;;;5.67;;
69323;SDS011;56470;47.350;8.718;2024-02-16T02:23:53;8.30;;;5.00;;
69323;SDS011;56470;47.350;8.718;2024-02-16T02:26:18;8.33;;;4.83;;
69323;SDS011;56470;47.350;8.718;2024-02-16T02:28:44;7.80;;;4.83;;
69323;SDS011;56470;47.350;8.718;2024-02-16T02:31:09;7.90;;;4.87;;
69323;SDS011;56470;47.350;8.718;2024-02-16T02:33:34;9.43;;;5.90;;
69323;SDS011;56470;47.350;8.718;2024-02-16T02:36:00;11.85;;;5.75;;
69323;SDS011;56470;47.350;8.718;2024-02-16T02:38:25;9.77;;;5.00;;
69323;SDS011;56470;47.350;8.718;2024-02-16T02:40:51;8.25;;;4.85;;
69323;SDS011;56470;47.350;8.718;2024-02-16T02:43:17;9.43;;;5.33;;
69323;SDS011;56470;47.350;8.718;2024-02-16T02:45:44;9.35;;;5.10;;
69323;SDS011;56470;47.350;8.718;2024-02-16T02:48:09;9.40;;;5.17;;
69323;SDS011;56470;47.350;8.718;2024-02-16T02:50:34;8.30;;;5.23;;
69323;SDS011;56470;47.350;8.718;2024-02-16T02:52:59;8.55;;;5.28;;
69323;SDS011;56470;47.350;8.718;2024-02-16T02:55:25;8.57;;;4.50;;
69323;SDS011;56470;47.350;8.718;2024-02-16T02:57:50;9.20;;;5.13;;
69323;SDS011;56470;47.350;8.718;2024-02-16T03:00:16;8.47;;;4.47;;
69323;SDS011;56470;47.350;8.718;2024-02-16T03:02:41;10.98;;;4.22;;
69323;SDS011;56470;47.350;8.718;2024-02-16T03:05:08;9.50;;;5.57;;
69323;SDS011;56470;47.350;8.718;2024-02-16T03:07:34;10.38;;;6.00;;
69323;SDS011;56470;47.350;8.718;2024-02-16T03:10:00;10.93;;;5.23;;
69323;SDS011;56470;47.350;8.718;2024-02-16T03:12:25;7.90;;;4.38;;
69323;SDS011;56470;47.350;8.718;2024-02-16T03:14:51;9.20;;;5.70;;
69323;SDS011;56470;47.350;8.718;2024-02-16T03:17:16;9.37;;;5.80;;
69323;SDS011;56470;47.350;8.718;2024-02-16T03:19:41;10.47;;;5.43;;
69323;SDS011;56470;47.350;8.718;2024-02-16T03:22:07;10.10;;;4.82;;
69323;SDS011;56470;47.350;8.718;2024-02-16T03:24:33;9.53;;;5.07;;
69323;SDS011;56470;47.350;8.718;2024-02-16T03:26:58;9.27;;;4.65;;
69323;SDS011;56470;47.350;8.718;2024-02-16T03:29:24;9.23;;;5.37;;
69323;SDS011;56470;47.350;8.718;2024-02-16T03:31:49;10.87;;;5.37;;
69323;SDS011;56470;47.350;8.718;2024-02-16T03:34:16;8.10;;;4.93;;
69323;SDS011;56470;47.350;8.718;2024-02-16T03:36:41;9.67;;;5.17;;
69323;SDS011;56470;47.350;8.718;2024-02-16T03:39:06;8.27;;;4.77;;
69323;SDS011;56470;47.350;8.718;2024-02-16T03:41:34;8.00;;;4.50;;
69323;SDS011;56470;47.350;8.718;2024-02-16T03:43:59;10.13;;;4.47;;
69323;SDS011;56470;47.350;8.718;2024-02-16T03:46:25;8.77;;;4.95;;
69323;SDS011;56470;47.350;8.718;2024-02-16T03:48:51;9.10;;;4.60;;
69323;SDS011;56470;47.350;8.718;2024-02-16T03:51:16;9.88;;;5.40;;
69323;SDS011;56470;47.350;8.718;2024-02-16T03:53:41;10.13;;;4.87;;
69323;SDS011;56470;47.350;8.718;2024-02-16T03:56:07;9.40;;;4.80;;
69323;SDS011;56470;47.350;8.718;2024-02-16T03:58:32;9.27;;;5.40;;
69323;SDS011;56470;47.350;8.718;2024-02-16T04:00:58;7.83;;;5.40;;
69323;SDS011;56470;47.350;8.718;2024-02-16T04:03:23;8.00;;;4.60;;
69323;SDS011;56470;47.350;8.718;2024-02-16T04:05:48;7.70;;;4.40;;
69323;SDS011;56470;47.350;8.718;2024-02-16T04:08:14;9.33;;;4.80;;
69323;SDS011;56470;47.350;8.718;2024-02-16T04:10:40;8.52;;;5.00;;
69323;SDS011;56470;47.350;8.718;2024-02-16T04:13:05;10.23;;;5.00;;
69323;SDS011;56470;47.350;8.718;2024-02-16T04:15:30;9.30;;;4.90;;
69323;SDS011;56470;47.350;8.718;2024-02-16T04:17:56;7.93;;;4.80;;
69323;SDS011;56470;47.350;8.718;2024-02-16T04:20:22;9.23;;;4.47;;
69323;SDS011;56470;47.350;8.718;2024-02-16T04:22:47;6.90;;;4.53;;
69323;SDS011;56470;47.350;8.718;2024-02-16T04:25:13;9.45;;;4.65;;
69323;SDS011;56470;47.350;8.718;2024-02-16T04:27:38;8.57;;;4.50;;
69323;SDS011;56470;47.350;8.718;2024-02-16T04:30:04;7.97;;;4.70;;
69323;SDS011;56470;47.350;8.718;2024-02-16T04:32:30;8.98;;;4.47;;
69323;SDS011;56470;47.350;8.718;2024-02-16T04:34:55;9.60;;;4.50;;
69323;SDS011;56470;47.350;8.718;2024-02-16T04:37:21;7.22;;;4.20;;
69323;SDS011;56470;47.350;8.718;2024-02-16T04:39:48;8.53;;;4.10;;
69323;SDS011;56470;47.350;8.718;2024-02-16T04:42:14;7.53;;;4.53;;
69323;SDS011;56470;47.350;8.718;2024-02-16T04:44:39;5.93;;;3.57;;
69323;SDS011;56470;47.350;8.718;2024-02-16T04:47:05;7.97;;;4.77;;
69323;SDS011;56470;47.350;8.718;2024-02-16T04:49:30;7.82;;;4.40;;
69323;SDS011;56470;47.350;8.718;2024-02-16T04:51:55;7.80;;;3.67;;
69323;SDS011;56470;47.350;8.718;2024-02-16T04:54:21;9.33;;;4.00;;
69323;SDS011;56470;47.350;8.718;2024-02-16T04:56:47;6.95;;;4.05;;
69323;SDS011;56470;47.350;8.718;2024-02-16T04:59:13;5.60;;;3.80;;
69323;SDS011;56470;47.350;8.718;2024-02-16T05:01:38;6.65;;;3.33;;
69323;SDS011;56470;47.350;8.718;2024-02-16T05:04:03;7.17;;;4.10;;
69323;SDS011;56470;47.350;8.718;2024-02-16T05:06:29;5.33;;;2.73;;
69323;SDS011;56470;47.350;8.718;2024-02-16T05:08:56;5.33;;;3.20;;
69323;SDS011;56470;47.350;8.718;2024-02-16T05:11:21;6.20;;;2.65;;
69323;SDS011;56470;47.350;8.718;2024-02-16T05:13:48;5.10;;;2.90;;
69323;SDS011;56470;47.350;8.718;2024-02-16T05:16:14;6.53;;;2.90;;
69323;SDS011;56470;47.350;8.718;2024-02-16T05:18:39;6.83;;;3.10;;
69323;SDS011;56470;47.350;8.718;2024-02-16T05:21:05;5.13;;;2.40;;
69323;SDS011;56470;47.350;8.718;2024-02-16T05:23:31;4.57;;;2.63;;
69323;SDS011;56470;47.350;8.718;2024-02-16T05:25:56;6.70;;;2.92;;
69323;SDS011;56470;47.350;8.718;2024-02-16T05:28:22;6.00;;;3.30;;
69323;SDS011;56470;47.350;8.718;2024-02-16T05:30:47;6.33;;;2.90;;
69323;SDS011;56470;47.350;8.718;2024-02-16T05:33:13;6.07;;;2.80;;
69323;SDS011;56470;47.350;8.718;2024-02-16T05:35:39;7.03;;;3.33;;
69323;SDS011;56470;47.350;8.718;2024-02-16T05:38:08;5.13;;;2.53;;
69323;SDS011;56470;47.350;8.718;2024-02-16T05:40:45;6.03;;;2.58;;
69323;SDS011;56470;47.350;8.718;2024-02-16T05:43:19;4.97;;;2.50;;
69323;SDS011;56470;47.350;8.718;2024-02-16T05:45:45;4.80;;;3.15;;
69323;SDS011;56470;47.350;8.718;2024-02-16T05:48:11;6.27;;;2.90;;
69323;SDS011;56470;47.350;8.718;2024-02-16T05:50:37;5.50;;;2.70;;
69323;SDS011;56470;47.350;8.718;2024-02-16T05:53:02;3.83;;;1.85;;
69323;SDS011;56470;47.350;8.718;2024-02-16T05:55:28;5.63;;;2.40;;
69323;SDS011;56470;47.350;8.718;2024-02-16T05:57:53;5.03;;;2.47;;
69323;SDS011;56470;47.350;8.718;2024-02-16T06:00:19;4.40;;;2.38;;
69323;SDS011;56470;47.350;8.718;2024-02-16T06:02:46;5.22;;;2.38;;
69323;SDS011;56470;47.350;8.718;2024-02-16T06:05:11;5.00;;;2.67;;
69323;SDS011;56470;47.350;8.718;2024-02-16T06:07:37;4.77;;;2.30;;
69323;SDS011;56470;47.350;8.718;2024-02-16T06:10:03;4.85;;;2.53;;
69323;SDS011;56470;47.350;8.718;2024-02-16T06:12:32;4.75;;;2.20;;
69323;SDS011;56470;47.350;8.718;2024-02-16T06:15:00;6.20;;;2.50;;
69323;SDS011;56470;47.350;8.718;2024-02-16T06:17:29;6.28;;;2.00;;
69323;SDS011;56470;47.350;8.718;2024-02-16T14:27:39;5.88;;;1.55;;
69323;SDS011;56470;47.350;8.718;2024-02-16T14:30:06;3.83;;;2.00;;
69323;SDS011;56470;47.350;8.718;2024-02-16T14:32:32;4.50;;;2.30;;
69323;SDS011;56470;47.350;8.718;2024-02-16T14:34:58;4.57;;;1.48;;
69323;SDS011;56470;47.350;8.718;2024-02-16T14:37:23;4.90;;;1.90;;
69323;SDS011;56470;47.350;8.718;2024-02-16T17:19:32;5.45;;;2.58;;
69323;SDS011;56470;47.350;8.718;2024-02-16T17:21:57;4.77;;;2.23;;
69323;SDS011;56470;47.350;8.718;2024-02-16T17:24:23;5.70;;;2.22;;
69323;SDS011;56470;47.350;8.718;2024-02-16T17:26:56;6.87;;;2.63;;
69323;SDS011;56470;47.350;8.718;2024-02-16T17:29:22;4.93;;;2.55;;
69323;SDS011;56470;47.350;8.718;2024-02-16T17:31:48;6.97;;;1.83;;
69323;SDS011;56470;47.350;8.718;2024-02-16T17:34:16;7.20;;;3.23;;
69323;SDS011;56470;47.350;8.718;2024-02-16T17:37:06;7.55;;;2.35;;
69323;SDS011;56470;47.350;8.718;2024-02-16T17:39:52;6.13;;;2.38;;
69323;SDS011;56470;47.350;8.718;2024-02-16T17:42:20;4.67;;;2.00;;
69323;SDS011;56470;47.350;8.718;2024-02-16T17:44:49;6.57;;;2.17;;
69323;SDS011;56470;47.350;8.718;2024-02-16T17:47:14;5.80;;;2.40;;
69323;SDS011;56470;47.350;8.718;2024-02-16T17:49:40;6.32;;;2.58;;
69323;SDS011;56470;47.350;8.718;2024-02-16T17:52:05;7.97;;;2.20;;
69323;SDS011;56470;47.350;8.718;2024-02-16T17:54:31;7.28;;;3.15;;
69323;SDS011;56470;47.350;8.718;2024-02-16T17:56:57;7.67;;;3.00;;
69323;SDS011;56470;47.350;8.718;2024-02-16T17:59:23;7.85;;;3.35;;
69323;SDS011;56470;47.350;8.718;2024-02-16T18:01:49;10.50;;;3.83;;
69323;SDS011;56470;47.350;8.718;2024-02-16T18:04:14;7.30;;;3.10;;
69323;SDS011;56470;47.350;8.718;2024-02-16T18:06:39;6.30;;;2.42;;
69323;SDS011;56470;47.350;8.718;2024-02-16T18:09:07;9.27;;;3.30;;
69323;SDS011;56470;47.350;8.718;2024-02-16T18:11:33;6.47;;;2.58;;
69323;SDS011;56470;47.350;8.718;2024-02-16T18:13:58;10.60;;;3.87;;
69323;SDS011;56470;47.350;8.718;2024-02-16T18:16:23;10.70;;;3.78;;
69323;SDS011;56470;47.350;8.718;2024-02-16T18:18:51;8.90;;;3.20;;
69323;SDS011;56470;47.350;8.718;2024-02-16T18:21:21;13.98;;;4.53;;
69323;SDS011;56470;47.350;8.718;2024-02-16T18:23:47;12.25;;;4.30;;
69323;SDS011;56470;47.350;8.718;2024-02-16T18:26:13;14.73;;;4.60;;
69323;SDS011;56470;47.350;8.718;2024-02-16T18:28:41;9.60;;;4.60;;
69323;SDS011;56470;47.350;8.718;2024-02-16T18:31:07;10.70;;;3.87;;
69323;SDS011;56470;47.350;8.718;2024-02-16T18:33:32;11.20;;;4.55;;
69323;SDS011;56470;47.350;8.718;2024-02-16T18:35:58;8.97;;;4.00;;
69323;SDS011;56470;47.350;8.718;2024-02-16T18:38:25;7.93;;;3.65;;
69323;SDS011;56470;47.350;8.718;2024-02-16T18:40:50;5.60;;;3.50;;
69323;SDS011;56470;47.350;8.718;2024-02-16T18:43:16;8.73;;;3.20;;
69323;SDS011;56470;47.350;8.718;2024-02-16T18:45:41;9.30;;;3.33;;
69323;SDS011;56470;47.350;8.718;2024-02-16T18:48:07;5.60;;;2.70;;
69323;SDS011;56470;47.350;8.718;2024-02-16T18:50:32;7.93;;;3.38;;
69323;SDS011;56470;47.350;8.718;2024-02-16T18:52:58;7.03;;;3.30;;
69323;SDS011;56470;47.350;8.718;2024-02-16T18:55:25;6.53;;;2.95;;
69323;SDS011;56470;47.350;8.718;2024-02-16T18:57:52;6.17;;;3.27;;
69323;SDS011;56470;47.350;8.718;2024-02-16T19:00:17;8.50;;;3.03;;
69323;SDS011;56470;47.350;8.718;2024-02-16T19:02:44;6.50;;;2.75;;
69323;SDS011;56470;47.350;8.718;2024-02-16T19:05:10;7.40;;;3.03;;
69323;SDS011;56470;47.350;8.718;2024-02-16T19:07:35;7.88;;;2.63;;
69323;SDS011;56470;47.350;8.718;2024-02-16T19:10:02;8.30;;;3.40;;
69323;SDS011;56470;47.350;8.718;2024-02-16T19:12:28;7.15;;;2.80;;
69323;SDS011;56470;47.350;8.718;2024-02-16T19:14:53;15.57;;;3.50;;
69323;SDS011;56470;47.350;8.718;2024-02-16T19:17:19;6.20;;;2.87;;
69323;SDS011;56470;47.350;8.718;2024-02-16T19:19:44;7.50;;;3.05;;
69323;SDS011;56470;47.350;8.718;2024-02-16T19:22:09;7.83;;;3.83;;
69323;SDS011;56470;47.350;8.718;2024-02-16T19:24:37;9.18;;;4.82;;
69323;SDS011;56470;47.350;8.718;2024-02-16T19:27:03;8.97;;;4.20;;
69323;SDS011;56470;47.350;8.718;2024-02-16T19:29:29;9.73;;;3.58;;
69323;SDS011;56470;47.350;8.718;2024-02-16T19:31:54;6.97;;;3.17;;
69323;SDS011;56470;47.350;8.718;2024-02-16T19:34:19;7.60;;;3.27;;
69323;SDS011;56470;47.350;8.718;2024-02-16T19:36:45;8.18;;;3.13;;
69323;SDS011;56470;47.350;8.718;2024-02-16T19:39:10;7.13;;;2.90;;
69323;SDS011;56470;47.350;8.718;2024-02-16T19:41:44;7.55;;;3.10;;
69323;SDS011;56470;47.350;8.718;2024-02-16T19:44:13;7.73;;;3.03;;
69323;SDS011;56470;47.350;8.718;2024-02-16T19:46:41;7.57;;;2.65;;
69323;SDS011;56470;47.350;8.718;2024-02-16T19:49:07;9.77;;;3.65;;
69323;SDS011;56470;47.350;8.718;2024-02-16T19:51:33;6.87;;;2.43;;
69323;SDS011;56470;47.350;8.718;2024-02-16T19:53:59;8.57;;;3.33;;
69323;SDS011;56470;47.350;8.718;2024-02-16T19:56:28;8.93;;;3.00;;
69323;SDS011;56470;47.350;8.718;2024-02-16T19:58:54;6.70;;;3.30;;
69323;SDS011;56470;47.350;8.718;2024-02-16T20:01:19;6.93;;;3.07;;
69323;SDS011;56470;47.350;8.718;2024-02-16T20:03:45;8.17;;;2.87;;
69323;SDS011;56470;47.350;8.718;2024-02-16T20:06:10;8.60;;;3.33;;
69323;SDS011;56470;47.350;8.718;2024-02-16T20:08:36;8.63;;;4.15;;
69323;SDS011;56470;47.350;8.718;2024-02-16T20:11:04;8.53;;;3.70;;
69323;SDS011;56470;47.350;8.718;2024-02-16T20:13:29;7.85;;;3.70;;
69323;SDS011;56470;47.350;8.718;2024-02-16T20:15:56;12.57;;;5.72;;
69323;SDS011;56470;47.350;8.718;2024-02-16T20:18:22;10.60;;;5.30;;
69323;SDS011;56470;47.350;8.718;2024-02-16T20:20:53;10.85;;;5.15;;
69323;SDS011;56470;47.350;8.718;2024-02-16T20:23:21;9.70;;;4.93;;
69323;SDS011;56470;47.350;8.718;2024-02-16T20:25:47;12.95;;;5.00;;
69323;SDS011;56470;47.350;8.718;2024-02-16T20:28:13;9.30;;;4.70;;
69323;SDS011;56470;47.350;8.718;2024-02-16T20:30:38;11.82;;;4.68;;
69323;SDS011;56470;47.350;8.718;2024-02-16T20:33:09;10.60;;;4.50;;
69323;SDS011;56470;47.350;8.718;2024-02-16T20:35:34;9.17;;;5.07;;
69323;SDS011;56470;47.350;8.718;2024-02-16T20:38:00;7.55;;;4.13;;
69323;SDS011;56470;47.350;8.718;2024-02-16T20:40:25;7.90;;;3.73;;
69323;SDS011;56470;47.350;8.718;2024-02-16T20:42:52;9.02;;;4.75;;
69323;SDS011;56470;47.350;8.718;2024-02-16T20:45:17;9.73;;;3.93;;
69323;SDS011;56470;47.350;8.718;2024-02-16T20:47:44;8.13;;;3.40;;
69323;SDS011;56470;47.350;8.718;2024-02-16T20:50:10;8.00;;;3.90;;
69323;SDS011;56470;47.350;8.718;2024-02-16T20:52:36;9.47;;;4.53;;
69323;SDS011;56470;47.350;8.718;2024-02-16T20:55:01;8.07;;;3.97;;
69323;SDS011;56470;47.350;8.718;2024-02-16T20:57:27;10.33;;;3.80;;
69323;SDS011;56470;47.350;8.718;2024-02-16T20:59:52;9.87;;;4.47;;
69323;SDS011;56470;47.350;8.718;2024-02-16T21:02:18;9.20;;;3.63;;
69323;SDS011;56470;47.350;8.718;2024-02-16T21:04:43;10.40;;;3.80;;
69323;SDS011;56470;47.350;8.718;2024-02-16T21:07:09;6.63;;;3.90;;
69323;SDS011;56470;47.350;8.718;2024-02-16T21:09:34;10.13;;;3.97;;
69323;SDS011;56470;47.350;8.718;2024-02-16T21:11:59;7.78;;;4.15;;
69323;SDS011;56470;47.350;8.718;2024-02-16T21:14:25;7.53;;;4.07;;
69323;SDS011;56470;47.350;8.718;2024-02-16T21:16:51;13.83;;;5.30;;
69323;SDS011;56470;47.350;8.718;2024-02-16T21:19:19;12.00;;;6.38;;
69323;SDS011;56470;47.350;8.718;2024-02-16T21:21:48;14.02;;;6.70;;
69323;SDS011;56470;47.350;8.718;2024-02-16T21:24:13;14.95;;;7.20;;
69323;SDS011;56470;47.350;8.718;2024-02-16T21:26:45;15.18;;;6.47;;
69323;SDS011;56470;47.350;8.718;2024-02-16T21:29:11;12.40;;;6.23;;
69323;SDS011;56470;47.350;8.718;2024-02-16T21:31:37;12.00;;;6.00;;
69323;SDS011;56470;47.350;8.718;2024-02-16T21:34:02;17.10;;;7.30;;
69323;SDS011;56470;47.350;8.718;2024-02-16T21:36:28;11.80;;;6.10;;
69323;SDS011;56470;47.350;8.718;2024-02-16T21:38:53;16.03;;;8.07;;
69323;SDS011;56470;47.350;8.718;2024-02-16T21:41:18;12.13;;;6.35;;
69323;SDS011;56470;47.350;8.718;2024-02-16T21:43:44;12.57;;;5.83;;
69323;SDS011;56470;47.350;8.718;2024-02-16T21:46:24;12.98;;;5.57;;
69323;SDS011;56470;47.350;8.718;2024-02-16T21:49:00;12.80;;;6.18;;
69323;SDS011;56470;47.350;8.718;2024-02-16T21:51:31;9.70;;;4.93;;
69323;SDS011;56470;47.350;8.718;2024-02-16T21:53:58;8.65;;;4.85;;
69323;SDS011;56470;47.350;8.718;2024-02-16T21:56:24;13.00;;;5.32;;
69323;SDS011;56470;47.350;8.718;2024-02-16T21:58:50;14.30;;;5.73;;
69323;SDS011;56470;47.350;8.718;2024-02-16T22:01:15;13.20;;;7.10;;
69323;SDS011;56470;47.350;8.718;2024-02-16T22:03:44;12.82;;;6.60;;
69323;SDS011;56470;47.350;8.718;2024-02-16T22:06:10;12.63;;;6.65;;
69323;SDS011;56470;47.350;8.718;2024-02-16T22:08:36;13.57;;;6.30;;
69323;SDS011;56470;47.350;8.718;2024-02-16T22:11:01;11.47;;;6.60;;
69323;SDS011;56470;47.350;8.718;2024-02-16T22:13:27;10.85;;;5.80;;
69323;SDS011;56470;47.350;8.718;2024-02-16T22:15:54;13.83;;;6.20;;
69323;SDS011;56470;47.350;8.718;2024-02-16T22:18:19;7.65;;;4.40;;
69323;SDS011;56470;47.350;8.718;2024-02-16T22:20:45;12.03;;;4.27;;
69323;SDS011;56470;47.350;8.718;2024-02-16T22:23:10;9.45;;;4.75;;
69323;SDS011;56470;47.350;8.718;2024-02-16T22:25:36;8.23;;;4.60;;
69323;SDS011;56470;47.350;8.718;2024-02-16T22:28:02;8.90;;;4.25;;
69323;SDS011;56470;47.350;8.718;2024-02-16T22:30:28;6.70;;;3.60;;
69323;SDS011;56470;47.350;8.718;2024-02-16T22:32:53;8.65;;;4.00;;
69323;SDS011;56470;47.350;8.718;2024-02-16T22:35:18;10.30;;;4.73;;
69323;SDS011;56470;47.350;8.718;2024-02-16T22:37:44;7.83;;;4.23;;
69323;SDS011;56470;47.350;8.718;2024-02-16T22:40:09;8.03;;;3.57;;
69323;SDS011;56470;47.350;8.718;2024-02-16T22:42:35;10.45;;;4.22;;
69323;SDS011;56470;47.350;8.718;2024-02-16T22:45:01;14.07;;;5.93;;
69323;SDS011;56470;47.350;8.718;2024-02-16T22:47:26;30.90;;;10.40;;
69323;SDS011;56470;47.350;8.718;2024-02-16T22:49:51;81.23;;;22.80;;
69323;SDS011;56470;47.350;8.718;2024-02-16T22:52:17;55.77;;;16.97;;
69323;SDS011;56470;47.350;8.718;2024-02-16T22:54:43;81.40;;;22.42;;
69323;SDS011;56470;47.350;8.718;2024-02-16T22:57:08;88.73;;;24.23;;
69323;SDS011;56470;47.350;8.718;2024-02-16T22:59:33;79.93;;;21.10;;
69323;SDS011;56470;47.350;8.718;2024-02-16T23:01:58;45.33;;;13.77;;
69323;SDS011;56470;47.350;8.718;2024-02-16T23:04:25;23.27;;;8.95;;
69323;SDS011;56470;47.350;8.718;2024-02-16T23:06:51;19.67;;;7.27;;
69323;SDS011;56470;47.350;8.718;2024-02-16T23:09:16;12.30;;;6.00;;
69323;SDS011;56470;47.350;8.718;2024-02-16T23:11:42;12.35;;;4.43;;
69323;SDS011;56470;47.350;8.718;2024-02-16T23:14:09;8.53;;;4.40;;
69323;SDS011;56470;47.350;8.718;2024-02-16T23:16:35;10.65;;;3.90;;
69323;SDS011;56470;47.350;8.718;2024-02-16T23:19:00;10.10;;;3.90;;
69323;SDS011;56470;47.350;8.718;2024-02-16T23:21:27;7.40;;;3.90;;
69323;SDS011;56470;47.350;8.718;2024-02-16T23:23:52;7.07;;;3.58;;
69323;SDS011;56470;47.350;8.718;2024-02-16T23:26:18;8.87;;;3.90;;
69323;SDS011;56470;47.350;8.718;2024-02-16T23:28:43;7.33;;;4.30;;
69323;SDS011;56470;47.350;8.718;2024-02-16T23:31:09;9.02;;;4.13;;
69323;SDS011;56470;47.350;8.718;2024-02-16T23:33:35;8.63;;;4.22;;
69323;SDS011;56470;47.350;8.718;2024-02-16T23:36:00;8.77;;;4.50;;
69323;SDS011;56470;47.350;8.718;2024-02-16T23:38:26;9.53;;;4.80;;
69323;SDS011;56470;47.350;8.718;2024-02-16T23:40:51;6.82;;;3.78;;
69323;SDS011;56470;47.350;8.718;2024-02-16T23:43:16;8.47;;;4.17;;
69323;SDS011;56470;47.350;8.718;2024-02-16T23:45:42;7.53;;;4.50;;
69323;SDS011;56470;47.350;8.718;2024-02-16T23:48:08;8.35;;;4.05;;
69323;SDS011;56470;47.350;8.718;2024-02-16T23:50:34;8.83;;;4.23;;
69323;SDS011;56470;47.350;8.718;2024-02-16T23:52:59;8.43;;;3.87;;
69323;SDS011;56470;47.350;8.718;2024-02-16T23:55:25;9.85;;;3.53;;
69323;SDS011;56470;47.350;8.718;2024-02-16T23:57:50;6.60;;;3.43;;
